Whitecourt Airport

CYZU · 艾伯塔, 加拿大

2024年5月24日 16:002024年5月24日 17:00有效
时间
星期五
16:00
>40%
代码
VFR
天气
光 阵雨 雨
能见度
6 mi+
天花板
-
120°
120°
速度
10 kt
阵风
20 kt
温度/星期日

原版的

TAF CYZU 242221Z 2422/2423 12010G20KT P6SM SCT050
TEMPO 2422/2423 P6SM -SHRA BKN050 RMK NXT FCST BY 251400Z

TAF Whitecourt Airport

Whitecourt Airport是,加拿大中的中型机场。 该机场位于纬度54,14390和经度-115,78700。 该机场有一条跑道: 11/29. 本场的ICAO机场代码为CYZU。 该机场的IATA代码为YZU。 机场在Edmonton FIR中。

该航空气象观测是针对Whitecourt Airport在2024年5月24日 16:21, 当地时间进行的。 从2024年5月24日 16:00到2024年5月24日 17:00, 当地时间有效.

预报

  • 在星期五 16:00和17:00之间

    • 风: 风来自120°方向,速度为10 kt。 预计20 kt阵风。
    • 能见度: 6 mi 或者更多
    • 乌云: 疏云,零星散落的云朵在5.000 ft的高度.
  • 暂时在星期五 16:00和17:00之间

    • 天气: 光 阵雨 雨
    • 乌云: 碎云在5.000 ft的高度.

白天

今天,太阳从05:23升起,在21:56降落。 这适用于Whitecourt Airport,世界夏令时可能有所不同。 当地时间与世界标准时间之间的时差为-6 小时。 夏令时目前正在进行中。

报告变更